createdAt,value
2023-04-15T00:01:11.939Z,93788.13
2023-04-15T00:03:39.061Z,93794.50
2023-04-15T00:06:07.669Z,93796.44
2023-04-15T00:08:34.360Z,93793.25
2023-04-15T00:11:03.123Z,93788.91
2023-04-15T00:13:29.928Z,93780.91
2023-04-15T00:15:56.511Z,93778.41
2023-04-15T00:18:24.136Z,93780.25
2023-04-15T00:20:50.758Z,93778.41
2023-04-15T00:23:19.006Z,93776.47
2023-04-15T00:25:45.568Z,93763.78
2023-04-15T00:28:12.418Z,93768.13
2023-04-15T00:30:39.114Z,93771.34
2023-04-15T00:33:05.777Z,93769.84
2023-04-15T00:35:36.657Z,93768.47
2023-04-15T00:38:04.758Z,93763.31
2023-04-15T00:40:33.368Z,93768.66
2023-04-15T00:43:00.284Z,93766.34
2023-04-15T00:45:28.125Z,93771.72
2023-04-15T00:47:55.781Z,93763.69
2023-04-15T00:50:22.823Z,93761.19
2023-04-15T00:52:49.433Z,93764.59
2023-04-15T00:55:16.414Z,93765.53
2023-04-15T00:57:44.567Z,93769.63
2023-04-15T01:00:12.528Z,93766.78
2023-04-15T01:02:39.498Z,93770.09
2023-04-15T01:05:07.717Z,93768.53
2023-04-15T01:07:34.364Z,93770.00
2023-04-15T01:10:01.107Z,93768.72
2023-04-15T01:12:28.232Z,93770.41
2023-04-15T01:14:57.220Z,93763.00
2023-04-15T01:17:24.775Z,93762.78
2023-04-15T01:19:52.253Z,93763.34
2023-04-15T01:22:18.874Z,93759.47
2023-04-15T01:24:52.205Z,93758.09
2023-04-15T01:27:20.661Z,93760.72
2023-04-15T01:29:47.255Z,93761.28
2023-04-15T01:32:14.001Z,93761.19
2023-04-15T01:34:40.808Z,93761.97
2023-04-15T01:37:07.463Z,93756.25
2023-04-15T01:39:34.479Z,93757.53
2023-04-15T01:42:01.097Z,93754.09
2023-04-15T01:44:29.028Z,93756.03
2023-04-15T01:46:55.661Z,93757.66
2023-04-15T01:49:22.508Z,93757.47
2023-04-15T01:51:49.344Z,93751.34
2023-04-15T01:54:16.271Z,93760.13
2023-04-15T01:56:42.892Z,93757.72
2023-04-15T01:59:09.728Z,93762.34
2023-04-15T02:01:38.197Z,93757.53
2023-04-15T02:04:05.004Z,93763.47
2023-04-15T02:06:31.710Z,93768.63
2023-04-15T02:08:59.198Z,93766.09
2023-04-15T02:11:26.016Z,93750.00
2023-04-15T02:13:52.947Z,93751.38
2023-04-15T02:16:20.187Z,93755.81
2023-04-15T02:18:48.309Z,93760.38
2023-04-15T02:21:15.064Z,93759.81
2023-04-15T02:23:41.711Z,93771.69
2023-04-15T02:26:08.325Z,93765.06
2023-04-15T02:28:35.005Z,93759.81
2023-04-15T02:31:06.409Z,93762.22
2023-04-15T02:33:33.230Z,93761.75
2023-04-15T02:36:01.714Z,93757.28
2023-04-15T02:38:28.362Z,93757.41
2023-04-15T02:40:54.978Z,93758.44
2023-04-15T02:43:21.717Z,93750.91
2023-04-15T02:45:48.728Z,93760.16
2023-04-15T02:48:17.990Z,93764.13
2023-04-15T02:50:44.602Z,93760.63
2023-04-15T02:53:13.427Z,93754.69
2023-04-15T02:55:40.242Z,93760.84
2023-04-15T02:58:07.152Z,93762.09
2023-04-15T03:00:33.803Z,93764.59
2023-04-15T03:03:03.829Z,93765.75
2023-04-15T03:05:30.923Z,93768.25
2023-04-15T03:07:57.571Z,93773.63
2023-04-15T03:10:25.629Z,93775.47
2023-04-15T03:12:52.268Z,93763.94
2023-04-15T03:15:18.931Z,93762.09
2023-04-15T03:17:45.659Z,93759.13
2023-04-15T03:20:12.667Z,93761.53
2023-04-15T03:22:39.307Z,93759.00
2023-04-15T03:25:06.415Z,93753.88
2023-04-15T03:27:37.050Z,93760.59
2023-04-15T03:30:04.113Z,93760.94
2023-04-15T03:32:30.768Z,93758.31
2023-04-15T03:34:57.395Z,93754.66
2023-04-15T03:37:24.040Z,93747.84
2023-04-15T03:39:50.593Z,93751.13
2023-04-15T03:42:17.200Z,93753.19
2023-04-15T03:44:45.154Z,93746.56
2023-04-15T03:47:12.002Z,93749.66
2023-04-15T03:49:38.660Z,93745.28
2023-04-15T03:52:05.691Z,93745.44
2023-04-15T03:54:32.285Z,93748.84
2023-04-15T03:56:58.893Z,93748.06
2023-04-15T03:59:25.534Z,93752.06
2023-04-15T04:01:53.562Z,93751.59
2023-04-15T04:04:20.540Z,93752.50
2023-04-15T04:06:47.204Z,93747.38
2023-04-15T04:09:13.788Z,93758.94
2023-04-15T04:11:40.544Z,93758.97
2023-04-15T04:14:09.969Z,93767.59
2023-04-15T04:16:36.882Z,93768.84
2023-04-15T04:19:04.899Z,93771.69
2023-04-15T04:21:34.104Z,93771.25
2023-04-15T04:24:00.764Z,93779.34
2023-04-15T04:26:27.489Z,93777.34
2023-04-15T04:28:54.117Z,93775.44
2023-04-15T04:31:21.243Z,93778.50
2023-04-15T04:33:47.881Z,93780.72
2023-04-15T04:36:15.829Z,93775.25
2023-04-15T04:38:42.527Z,93780.38
2023-04-15T04:41:09.115Z,93780.84
2023-04-15T04:43:35.901Z,93784.59
2023-04-15T04:46:02.564Z,93784.25
2023-04-15T04:48:29.218Z,93793.72
2023-04-15T04:50:56.027Z,93788.59
2023-04-15T04:53:24.069Z,93781.97
2023-04-15T04:55:51.104Z,93778.31
2023-04-15T04:58:17.735Z,93788.13
2023-04-15T05:00:46.675Z,93788.25
2023-04-15T05:03:13.532Z,93783.56
2023-04-15T05:05:41.170Z,93779.81
2023-04-15T05:08:07.987Z,93785.84
2023-04-15T05:10:36.321Z,93787.56
2023-04-15T05:13:02.894Z,93779.91
2023-04-15T05:15:29.562Z,93775.25
2023-04-15T05:17:56.324Z,93787.44
2023-04-15T05:20:22.939Z,93781.75
2023-04-15T05:22:49.657Z,93779.56
2023-04-15T05:25:16.427Z,93781.06
2023-04-15T05:27:44.627Z,93782.09
2023-04-15T05:30:13.416Z,93778.09
2023-04-15T05:32:40.707Z,93783.09
2023-04-15T05:35:08.579Z,93783.34
2023-04-15T05:37:36.230Z,93785.63
2023-04-15T05:40:03.184Z,93788.59
2023-04-15T05:42:29.837Z,93780.03
2023-04-15T05:44:58.368Z,93785.28
2023-04-15T05:47:24.993Z,93789.16
2023-04-15T05:49:51.711Z,93782.59
2023-04-15T05:52:18.386Z,93788.47
2023-04-15T05:54:45.029Z,93790.53
2023-04-15T05:57:11.715Z,93787.44
2023-04-15T05:59:38.923Z,93788.03
2023-04-15T06:02:07.551Z,93788.75
2023-04-15T06:04:34.297Z,93790.09
2023-04-15T06:07:01.219Z,93796.59
2023-04-15T06:09:28.988Z,93792.13
2023-04-15T06:11:56.892Z,93788.72
2023-04-15T06:14:23.625Z,93792.19
2023-04-15T06:16:50.213Z,93794.19
2023-04-15T06:19:18.490Z,93797.16
2023-04-15T06:21:47.894Z,93791.56
2023-04-15T06:24:14.607Z,93791.22
2023-04-15T06:26:41.568Z,93789.16
2023-04-15T06:29:08.264Z,93792.38
2023-04-15T06:31:35.036Z,93791.34
2023-04-15T06:34:01.691Z,93791.78
2023-04-15T06:36:29.672Z,93796.47
2023-04-15T06:38:57.078Z,93796.88
2023-04-15T06:41:23.955Z,93800.75
2023-04-15T06:43:51.672Z,93799.06
2023-04-15T06:46:18.344Z,93794.06
2023-04-15T06:48:45.640Z,93796.69
2023-04-15T06:51:12.626Z,93796.81
2023-04-15T06:53:42.242Z,93796.03
2023-04-15T06:56:09.661Z,93798.41
2023-04-15T06:58:36.381Z,93792.59
2023-04-15T07:01:03.470Z,93795.22
2023-04-15T07:03:32.577Z,93787.66
2023-04-15T07:05:59.750Z,93792.91
2023-04-15T07:08:26.457Z,93788.91
2023-04-15T07:10:54.553Z,93784.69
2023-04-15T07:13:21.249Z,93793.47
2023-04-15T07:15:47.896Z,93786.06
2023-04-15T07:18:14.542Z,93785.94
2023-04-15T07:20:41.353Z,93793.16
2023-04-15T07:23:07.962Z,93789.47
2023-04-15T07:25:34.614Z,93796.44
2023-04-15T07:28:02.664Z,93786.03
2023-04-15T07:30:29.584Z,93784.56
2023-04-15T07:32:56.268Z,93789.69
2023-04-15T07:35:23.441Z,93790.28
2023-04-15T07:37:50.089Z,93790.97
2023-04-15T07:40:16.913Z,93794.28
2023-04-15T07:42:43.969Z,93792.94
2023-04-15T07:45:12.835Z,93795.09
2023-04-15T07:47:40.553Z,93795.56
2023-04-15T07:50:07.676Z,93791.44
2023-04-15T07:52:39.154Z,93791.41
2023-04-15T07:55:08.343Z,93791.66
2023-04-15T07:57:35.352Z,93796.91
2023-04-15T08:00:04.133Z,93796.09
2023-04-15T08:02:32.664Z,93795.72
2023-04-15T08:04:59.836Z,93800.91
2023-04-15T08:07:26.474Z,93801.47
2023-04-15T08:09:53.211Z,93798.63
2023-04-15T08:12:19.841Z,93797.28
2023-04-15T08:14:46.990Z,93803.66
2023-04-15T08:17:13.558Z,93787.31
2023-04-15T08:19:42.426Z,93803.78
2023-04-15T08:22:10.943Z,93797.59
2023-04-15T08:24:44.826Z,93794.84
2023-04-15T08:27:11.478Z,93791.72
2023-04-15T08:29:38.497Z,93788.72
2023-04-15T08:32:06.417Z,93790.13
2023-04-15T08:34:33.137Z,93795.53
2023-04-15T08:37:01.269Z,93798.22
2023-04-15T08:39:28.266Z,93786.44
2023-04-15T08:42:00.402Z,93782.59
2023-04-15T08:44:30.529Z,93782.00
2023-04-15T08:46:57.375Z,93778.09
2023-04-15T08:49:27.153Z,93777.69
2023-04-15T08:51:53.592Z,93772.69
2023-04-15T08:54:21.634Z,93767.72
2023-04-15T08:56:48.923Z,93765.56
2023-04-15T08:59:16.562Z,93769.78
2023-04-15T09:01:43.786Z,93772.25
2023-04-15T09:04:12.592Z,93772.16
2023-04-15T09:06:40.426Z,93775.31
2023-04-15T09:09:07.234Z,93765.09
2023-04-15T09:11:35.656Z,93769.31
2023-04-15T09:14:02.413Z,93768.75
2023-04-15T09:16:29.109Z,93784.81
2023-04-15T09:18:55.720Z,93772.06
2023-04-15T09:21:23.572Z,93775.97
2023-04-15T09:23:58.180Z,93767.75
2023-04-15T09:26:32.939Z,93780.59
2023-04-15T09:29:05.891Z,93764.25
2023-04-15T09:31:33.103Z,93786.31
2023-04-15T09:34:00.102Z,93783.44
2023-04-15T09:36:29.853Z,93788.41
2023-04-15T09:38:57.492Z,93782.84
2023-04-15T09:41:24.928Z,93788.88
2023-04-15T09:43:51.989Z,93781.63
2023-04-15T09:46:20.215Z,93782.19
2023-04-15T09:48:46.966Z,93777.94
2023-04-15T09:51:14.169Z,93771.91
2023-04-15T09:53:40.876Z,93783.81
2023-04-15T09:56:09.053Z,93779.22
2023-04-15T09:58:37.479Z,93775.88
2023-04-15T10:01:06.548Z,93780.28
2023-04-15T10:03:39.040Z,93777.63
2023-04-15T10:06:05.957Z,93775.44
2023-04-15T10:08:34.905Z,93788.19
2023-04-15T10:11:02.606Z,93789.00
2023-04-15T10:13:36.478Z,93781.44
2023-04-15T10:16:07.289Z,93790.97
2023-04-15T10:18:40.678Z,93790.78
2023-04-15T10:21:09.496Z,93785.81
2023-04-15T10:23:37.054Z,93786.69
2023-04-15T10:26:04.963Z,93791.44
2023-04-15T10:28:31.769Z,93787.59
2023-04-15T10:30:59.994Z,93794.22
2023-04-15T10:33:27.690Z,93790.69
2023-04-15T10:35:56.501Z,93801.66
2023-04-15T10:38:34.535Z,93794.47
2023-04-15T10:41:17.144Z,93795.22
2023-04-15T10:43:53.698Z,93802.78
2023-04-15T10:46:23.244Z,93801.88
2023-04-15T10:48:51.791Z,93802.84
2023-04-15T10:51:29.509Z,93805.25
2023-04-15T10:54:00.108Z,93807.94
2023-04-15T10:56:28.819Z,93810.31
2023-04-15T10:58:55.531Z,93810.97
2023-04-15T11:01:25.343Z,93813.50
2023-04-15T11:03:52.078Z,93811.59
2023-04-15T11:06:18.897Z,93823.31
2023-04-15T11:08:58.514Z,93813.81
2023-04-15T11:11:58.456Z,93806.88
2023-04-15T11:14:25.314Z,93815.94
2023-04-15T11:16:52.166Z,93812.25
2023-04-15T11:19:18.831Z,93811.88
2023-04-15T11:21:46.008Z,93815.19
2023-04-15T11:24:27.035Z,93815.88
2023-04-15T11:26:58.335Z,93818.25
2023-04-15T11:29:29.983Z,93826.56
2023-04-15T11:32:04.789Z,93820.38
2023-04-15T11:34:32.928Z,93821.47
2023-04-15T11:37:00.814Z,93829.75
2023-04-15T11:39:29.399Z,93821.03
2023-04-15T11:41:56.086Z,93822.72
2023-04-15T11:44:22.705Z,93827.59
2023-04-15T11:46:49.374Z,93831.03
2023-04-15T11:49:27.076Z,93837.31
2023-04-15T11:51:53.804Z,93837.19
2023-04-15T11:54:20.548Z,93844.16
2023-04-15T11:56:52.544Z,93849.06
2023-04-15T11:59:19.297Z,93851.97
2023-04-15T12:01:47.643Z,93867.03
2023-04-15T12:04:15.875Z,93865.94
2023-04-15T12:06:43.026Z,93870.06
2023-04-15T12:09:12.295Z,93874.03
2023-04-15T12:11:44.781Z,93869.88
2023-04-15T12:14:25.586Z,93880.91
2023-04-15T12:16:54.194Z,93881.41
2023-04-15T12:19:24.507Z,93883.38
2023-04-15T12:21:52.368Z,93881.09
2023-04-15T12:24:21.782Z,93887.91
2023-04-15T12:26:50.526Z,93885.03
2023-04-15T12:29:17.662Z,93887.50
2023-04-15T12:31:53.486Z,93893.97
2023-04-15T12:34:27.963Z,93895.81
2023-04-15T12:36:54.966Z,93901.56
2023-04-15T12:39:22.874Z,93899.91
2023-04-15T12:41:49.471Z,93904.78
2023-04-15T12:44:16.113Z,93914.53
2023-04-15T12:46:42.788Z,93918.16
2023-04-15T12:49:11.118Z,93914.97
2023-04-15T12:51:37.748Z,93916.06
2023-04-15T12:54:04.793Z,93925.22
2023-04-15T12:56:31.749Z,93914.84
2023-04-15T12:58:58.407Z,93920.84
2023-04-15T13:01:25.247Z,93918.22
2023-04-15T13:03:52.120Z,93922.91
2023-04-15T13:06:20.183Z,93914.28
2023-04-15T13:08:57.293Z,93927.72
2023-04-15T13:11:25.346Z,93921.66
2023-04-15T13:13:54.675Z,93937.06
2023-04-15T13:16:21.871Z,93940.59
2023-04-15T13:18:48.779Z,93945.13
2023-04-15T13:21:15.554Z,93948.31
2023-04-15T13:23:43.594Z,93953.84
2023-04-15T13:26:10.287Z,93959.28
2023-04-15T13:28:37.205Z,93960.22
2023-04-15T13:31:03.972Z,93958.78
2023-04-15T13:33:30.804Z,93966.19
2023-04-15T13:35:57.512Z,93968.66
2023-04-15T13:38:25.733Z,93972.00
2023-04-15T13:40:53.713Z,93995.72
2023-04-15T13:43:21.543Z,93987.59
2023-04-15T13:45:48.308Z,94001.06
2023-04-15T13:48:14.982Z,94011.47
2023-04-15T13:50:45.292Z,94017.69
2023-04-15T13:53:11.891Z,94021.94
2023-04-15T13:55:41.644Z,94025.38
2023-04-15T13:58:10.006Z,94028.00
2023-04-15T14:00:36.837Z,94029.84
2023-04-15T14:03:03.993Z,94031.47
2023-04-15T14:05:30.867Z,94029.41
2023-04-15T14:07:57.621Z,94031.00
2023-04-15T14:10:24.242Z,94035.47
2023-04-15T14:12:50.963Z,94035.47
2023-04-15T14:15:19.077Z,94035.72
2023-04-15T14:17:45.983Z,94028.84
2023-04-15T14:20:15.005Z,94033.19
2023-04-15T14:22:43.007Z,94034.53
2023-04-15T14:25:11.722Z,94037.16
2023-04-15T14:27:44.322Z,94032.97
2023-04-15T14:30:11.727Z,94035.03
2023-04-15T14:32:39.689Z,94041.09
2023-04-15T14:35:06.931Z,94038.41
2023-04-15T14:37:33.528Z,94038.34
2023-04-15T14:40:00.349Z,94045.94
2023-04-15T14:42:26.930Z,94044.88
2023-04-15T14:44:53.511Z,94044.34
2023-04-15T14:47:20.285Z,94052.81
2023-04-15T14:49:51.345Z,94051.09
2023-04-15T14:52:17.946Z,94059.09
2023-04-15T14:54:44.582Z,94063.91
2023-04-15T14:57:11.205Z,94066.94
2023-04-15T14:59:37.833Z,94071.91
2023-04-15T15:02:04.618Z,94077.59
2023-04-15T15:04:33.415Z,94085.41
2023-04-15T15:07:01.572Z,94095.72
2023-04-15T15:09:28.262Z,94090.00
2023-04-15T15:11:54.911Z,94096.25
2023-04-15T15:14:21.754Z,94101.41
2023-04-15T15:16:51.512Z,94104.38
2023-04-15T15:19:18.122Z,94104.09
2023-04-15T15:21:44.714Z,94104.63
2023-04-15T15:24:12.677Z,94107.00
2023-04-15T15:26:40.104Z,94112.31
2023-04-15T15:29:06.925Z,94114.03
2023-04-15T15:31:34.473Z,94118.16
2023-04-15T15:34:01.300Z,94116.88
2023-04-15T15:36:27.953Z,94128.78
2023-04-15T15:38:54.557Z,94126.38
2023-04-15T15:41:22.501Z,94142.75
2023-04-15T15:43:49.120Z,94150.44
2023-04-15T15:46:15.901Z,94148.59
2023-04-15T15:48:42.726Z,94146.94
2023-04-15T15:51:09.418Z,94152.13
2023-04-15T15:53:36.174Z,94151.38
2023-04-15T15:56:04.110Z,94163.06
2023-04-15T15:58:32.111Z,94166.81
2023-04-15T16:01:01.493Z,94163.84
2023-04-15T16:03:28.383Z,94169.69
2023-04-15T16:05:55.154Z,94162.59
2023-04-15T16:08:21.756Z,94171.53
2023-04-15T16:10:48.577Z,94166.25
2023-04-15T16:13:15.368Z,94180.00
2023-04-15T16:15:43.392Z,94163.84
2023-04-15T16:18:09.976Z,94177.84
2023-04-15T16:20:37.766Z,94173.34
2023-04-15T16:23:11.104Z,94174.41
2023-04-15T16:25:37.698Z,94176.78
2023-04-15T16:28:11.728Z,94179.19
2023-04-15T16:30:47.061Z,94187.34
2023-04-15T16:33:13.665Z,94190.91
2023-04-15T16:35:40.267Z,94199.50
2023-04-15T16:38:07.030Z,94198.69
2023-04-15T16:40:33.665Z,94206.59
2023-04-15T16:43:00.306Z,94213.00
2023-04-15T16:45:26.983Z,94212.94
2023-04-15T16:47:56.670Z,94209.63
2023-04-15T16:50:23.236Z,94214.84
2023-04-15T16:52:52.939Z,94222.88
2023-04-15T16:55:19.386Z,94228.94
2023-04-15T16:58:01.554Z,94229.09
2023-04-15T17:00:30.427Z,94238.69
2023-04-15T17:02:58.673Z,94245.22
2023-04-15T17:05:27.649Z,94249.13
2023-04-15T17:07:54.663Z,94257.94
2023-04-15T17:10:21.279Z,94280.84
2023-04-15T17:12:47.904Z,94277.88
2023-04-15T17:15:14.514Z,94296.38
2023-04-15T17:17:41.225Z,94299.59
2023-04-15T17:20:10.547Z,94303.47
2023-04-15T17:22:37.227Z,94299.31
2023-04-15T17:25:04.689Z,94309.16
2023-04-15T17:27:31.349Z,94307.81
2023-04-15T17:29:58.003Z,94323.22
2023-04-15T17:32:31.504Z,94323.47
2023-04-15T17:34:58.293Z,94335.63
2023-04-15T17:37:26.826Z,94331.72
2023-04-15T17:39:53.508Z,94331.72
2023-04-15T17:42:21.531Z,94334.59
2023-04-15T17:44:48.111Z,94304.84
2023-04-15T17:47:14.769Z,94342.53
2023-04-15T17:49:41.381Z,94337.44
2023-04-15T17:52:08.037Z,94344.31
2023-04-15T17:54:36.074Z,94342.03
2023-04-15T17:57:03.249Z,94341.69
2023-04-15T17:59:29.999Z,94302.72
2023-04-15T18:01:58.050Z,94344.38
2023-04-15T18:04:26.505Z,94354.16
2023-04-15T18:06:56.406Z,94363.38
2023-04-15T18:09:23.069Z,94369.41
2023-04-15T18:11:51.242Z,94374.22
2023-04-15T18:14:30.770Z,94372.81
2023-04-15T18:16:59.978Z,94371.22
2023-04-15T18:19:26.559Z,94359.44
2023-04-15T18:21:53.244Z,94380.53
2023-04-15T18:24:19.831Z,94378.81
2023-04-15T18:26:48.883Z,94385.06
2023-04-15T18:29:19.521Z,94379.13
2023-04-15T18:31:46.163Z,94381.47
2023-04-15T18:34:13.110Z,94380.16
2023-04-15T18:36:39.802Z,94385.91
2023-04-15T18:39:06.731Z,94394.38
2023-04-15T18:41:33.587Z,94386.41
2023-04-15T18:44:02.223Z,94398.88
2023-04-15T18:46:30.182Z,94398.88
2023-04-15T18:48:56.755Z,94420.44
2023-04-15T18:51:23.387Z,94419.56
2023-04-15T18:53:49.981Z,94413.59
2023-04-15T18:56:16.554Z,94416.47
2023-04-15T18:59:09.209Z,94415.63
2023-04-15T19:01:31.685Z,94418.22
2023-04-15T19:03:58.423Z,94426.84
2023-04-15T19:06:26.753Z,94429.16
2023-04-15T19:08:53.435Z,94421.44
2023-04-15T19:11:20.037Z,94429.28
2023-04-15T19:13:46.618Z,94416.47
2023-04-15T19:16:13.557Z,94435.56
2023-04-15T19:18:41.581Z,94439.00
2023-04-15T19:21:08.192Z,94433.13
2023-04-15T19:23:34.817Z,94436.00
2023-04-15T19:26:01.484Z,94446.09
2023-04-15T19:28:28.392Z,94452.38
2023-04-15T19:30:55.238Z,94446.91
2023-04-15T19:33:21.972Z,94455.22
2023-04-15T19:35:50.306Z,94453.19
2023-04-15T19:38:17.093Z,94459.47
2023-04-15T19:40:43.794Z,94464.75
2023-04-15T19:43:10.388Z,94454.19
2023-04-15T19:45:37.064Z,94452.38
2023-04-15T19:48:06.040Z,94458.66
2023-04-15T19:50:32.807Z,94451.66
2023-04-15T19:53:00.750Z,94463.13
2023-04-15T19:55:27.318Z,94460.50
2023-04-15T19:57:53.897Z,94465.19
2023-04-15T20:00:20.930Z,94464.97
2023-04-15T20:02:47.729Z,94463.34
2023-04-15T20:05:14.534Z,94459.13
2023-04-15T20:07:42.562Z,94467.50
2023-04-15T20:10:13.295Z,94463.59
2023-04-15T20:12:49.547Z,94459.19
2023-04-15T20:15:19.625Z,94461.19
2023-04-15T20:17:46.375Z,94456.28
2023-04-15T20:20:13.065Z,94463.66
2023-04-15T20:22:39.739Z,94454.75
2023-04-15T20:25:07.343Z,94460.59
2023-04-15T20:27:35.438Z,94469.41
2023-04-15T20:30:03.312Z,94463.66
2023-04-15T20:32:32.578Z,94468.72
2023-04-15T20:34:59.230Z,94459.78
2023-04-15T20:37:25.997Z,94474.78
2023-04-15T20:39:52.964Z,94466.31
2023-04-15T20:42:19.734Z,94469.50
2023-04-15T20:44:47.704Z,94480.03
2023-04-15T20:47:14.346Z,94483.22
2023-04-15T20:49:41.180Z,94486.44
2023-04-15T20:52:08.632Z,94494.91
2023-04-15T20:54:35.502Z,94495.94
2023-04-15T20:57:02.549Z,94496.97
2023-04-15T20:59:29.232Z,94494.91
2023-04-15T21:01:57.520Z,94500.63
2023-04-15T21:04:24.611Z,94501.78
2023-04-15T21:06:52.208Z,94510.13
2023-04-15T21:09:19.032Z,94514.38
2023-04-15T21:14:19.653Z,94518.84
2023-04-15T21:16:46.511Z,94523.06
2023-04-15T21:19:14.872Z,94522.84
2023-04-15T21:21:41.507Z,94531.78
2023-04-15T21:24:08.176Z,94528.13
2023-04-15T21:26:36.063Z,94531.41
2023-04-15T21:29:03.049Z,94526.00
2023-04-15T21:31:30.073Z,94531.63
2023-04-15T21:33:56.812Z,94536.59
2023-04-15T21:36:24.795Z,94539.53
2023-04-15T21:38:51.482Z,94537.19
2023-04-15T21:41:18.164Z,94536.75
2023-04-15T21:43:44.844Z,94538.38
2023-04-15T21:46:23.146Z,94543.41
2023-04-15T21:48:55.982Z,94545.03
2023-04-15T21:51:24.025Z,94544.88
2023-04-15T21:53:50.749Z,94548.53
2023-04-15T21:56:17.346Z,94547.28
2023-04-15T21:58:43.962Z,94552.31
2023-04-15T22:01:10.587Z,94555.75
2023-04-15T22:03:37.398Z,94560.84
2023-04-15T22:06:04.581Z,94566.47
2023-04-15T22:08:38.720Z,94569.88
2023-04-15T22:11:18.473Z,94575.38
2023-04-15T22:13:45.060Z,94573.06
2023-04-15T22:16:11.962Z,94575.19
2023-04-15T22:18:38.588Z,94578.25
2023-04-15T22:21:05.239Z,94582.91
2023-04-15T22:23:33.161Z,94581.66
2023-04-15T22:25:59.846Z,94586.03
2023-04-15T22:28:26.505Z,94586.03
2023-04-15T22:30:54.570Z,94594.16
2023-04-15T22:33:21.305Z,94595.78
2023-04-15T22:35:47.912Z,94590.50
2023-04-15T22:38:14.513Z,94592.56
2023-04-15T22:40:42.444Z,94598.19
2023-04-15T22:43:09.105Z,94600.81
2023-04-15T22:45:36.025Z,94599.44
2023-04-15T22:48:02.646Z,94603.00
2023-04-15T22:50:29.246Z,94607.28
2023-04-15T22:52:55.911Z,94609.94
2023-04-15T22:55:22.551Z,94611.09
2023-04-15T22:57:50.555Z,94608.41
2023-04-15T23:00:17.507Z,94608.19
2023-04-15T23:02:44.188Z,94610.16
2023-04-15T23:05:12.000Z,94607.38
2023-04-15T23:07:40.317Z,94617.50
2023-04-15T23:10:08.099Z,94614.69
2023-04-15T23:12:34.893Z,94616.69
2023-04-15T23:15:03.119Z,94608.84
2023-04-15T23:17:29.779Z,94610.03
2023-04-15T23:19:56.383Z,94605.94
2023-04-15T23:22:23.038Z,94614.44
2023-04-15T23:24:49.633Z,94615.13
2023-04-15T23:27:18.912Z,94612.88
2023-04-15T23:29:46.020Z,94609.63
2023-04-15T23:32:14.023Z,94612.94
2023-04-15T23:34:40.710Z,94616.75
2023-04-15T23:37:07.533Z,94618.72
2023-04-15T23:39:34.115Z,94621.56
2023-04-15T23:42:01.122Z,94620.72
2023-04-15T23:44:27.706Z,94621.13
2023-04-15T23:46:54.357Z,94629.47
2023-04-15T23:49:22.414Z,94625.81
2023-04-15T23:51:49.136Z,94622.75
2023-04-15T23:54:15.695Z,94615.88
2023-04-15T23:56:42.289Z,94627.44
2023-04-15T23:59:09.157Z,94614.09
